| time (UTC) | temp C | wind direction | speed KPH | gust KPH | rain 1hr cm | rain 24hr cm | rain mn cm | humidity % | barometer mb |
| 20260903071103 | 18 | 134 | 4.8 | 8.0 | 0.00 | 0.00 | 0.00 | 77 | 1022.8 |
| 20260903064102 | 16 | 139 | 3.2 | 8.0 | 0.00 | 0.00 | 0.00 | 94 | 1023.3 |
| 20260903061103 | 14 | 112 | 1.6 | 4.8 | 0.00 | 0.00 | 0.00 | 100 | 1023.6 |
| 20260903054102 | 14 | 167 | 3.2 | 6.4 | 0.00 | 0.00 | 0.00 | 100 | 1023.6 |
| 20260903051103 | 13 | 165 | 3.2 | 6.4 | 0.00 | 0.00 | 0.00 | 100 | 1023.6 |
| 20260903044102 | 14 | 141 | 1.6 | 3.2 | 0.00 | 0.00 | 0.00 | 100 | 1022.6 |
| 20260903041102 | 14 | 117 | 1.6 | 4.8 | 0.00 | 0.00 | 0.00 | 100 | 1022.5 |
| 20260903031103 | 15 | 148 | 3.2 | 6.4 | 0.00 | 0.00 | 0.00 | 100 | 1022.4 |
| 20260903021102 | 16 | 74 | 3.2 | 6.4 | 0.00 | 0.00 | 0.00 | 95 | 1022.3 |
| 20260903014102 | 16 | 21 | 3.2 | 6.4 | 0.00 | 0.00 | 0.00 | 94 | 1022.2 |
| 20260903011103 | 16 | 316 | 4.8 | 9.7 | 0.00 | 0.00 | 0.00 | 94 | 1022.2 |
| 20260903004103 | 16 | 114 | 3.2 | 6.4 | 0.00 | 0.00 | 0.00 | 96 | 1022.3 |
| 20260903001502 | 15 | 152 | 6.4 | 9.7 | 0.00 | 0.00 | 0.00 | 99 | 1022.4 |
| 20260902234102 | 15 | 152 | 3.2 | 8.0 | 0.00 | 0.00 | 0.00 | 99 | 1022.4 |
| 20260902224103 | 16 | 145 | 3.2 | 6.4 | 0.00 | 0.00 | 0.00 | 96 | 1022.3 |
| 20260902221103 | 16 | 163 | 4.8 | 8.0 | 0.00 | 0.00 | 0.00 | 97 | 1022.2 |
| 20260902214103 | 16 | 161 | 4.8 | 9.7 | 0.00 | 0.00 | 0.00 | 98 | 1022.2 |
| 20260902211103 | 16 | 162 | 3.2 | 9.7 | 0.00 | 0.00 | 0.00 | 95 | 1021.1 |
| 20260902204104 | 17 | 38 | 3.2 | 6.4 | 0.00 | 0.00 | 0.00 | 90 | 1021.0 |
| 20260902201103 | 17 | 145 | 3.2 | 9.7 | 0.00 | 0.00 | 0.00 | 90 | 1020.9 |
| 20260902194103 | 18 | 121 | 3.2 | 6.4 | 0.00 | 0.00 | 0.00 | 86 | 1020.8 |
| 20260902191103 | 18 | 353 | 1.6 | 4.8 | 0.00 | 0.00 | 0.00 | 84 | 1020.7 |
| 20260902184103 | 19 | 217 | 1.6 | 4.8 | 0.00 | 0.00 | 0.00 | 84 | 1020.7 |
| 20260902181103 | 20 | 359 | 1.6 | 4.8 | 0.00 | 0.00 | 0.00 | 75 | 1019.4 |
| 20260902174103 | 21 | 16 | 4.8 | 9.7 | 0.00 | 0.00 | 0.00 | 66 | 1019.2 |
| 20260902171103 | 23 | 345 | 4.8 | 8.0 | 0.00 | 0.00 | 0.00 | 58 | 1018.9 |
| 20260902164103 | 24 | 346 | 6.4 | 12.9 | 0.00 | 0.00 | 0.00 | 50 | 1018.7 |
| 20260902161103 | 25 | 333 | 4.8 | 14.5 | 0.00 | 0.00 | 0.00 | 48 | 1018.6 |
| 20260902154103 | 25 | 348 | 6.4 | 16.1 | 0.00 | 0.00 | 0.00 | 46 | 1018.6 |
| 20260902151103 | 25 | 319 | 8.0 | 16.1 | 0.00 | 0.00 | 0.00 | 46 | 1018.6 |
| 20260902144103 | 25 | 323 | 6.4 | 16.1 | 0.00 | 0.00 | 0.00 | 46 | 1019.6 |
| 20260902141103 | 25 | 317 | 4.8 | 16.1 | 0.00 | 0.00 | 0.00 | 45 | 1019.6 |
| 20260902134103 | 25 | 347 | 8.0 | 19.3 | 0.00 | 0.00 | 0.00 | 48 | 1019.7 |
| 20260902131103 | 24 | 325 | 8.0 | 17.7 | 0.00 | 0.00 | 0.00 | 48 | 1019.7 |
| 20260902124102 | 25 | 338 | 8.0 | 19.3 | 0.00 | 0.00 | 0.00 | 47 | 1019.7 |
| 20260902121103 | 24 | 315 | 6.4 | 12.9 | 0.00 | 0.00 | 0.00 | 48 | 1019.7 |
| 20260902114103 | 24 | 295 | 4.8 | 12.9 | 0.00 | 0.00 | 0.00 | 52 | 1019.8 |
| 20260902111103 | 23 | 2 | 6.4 | 12.9 | 0.00 | 0.00 | 0.00 | 51 | 1020.9 |
| 20260902104103 | 23 | 26 | 3.2 | 9.7 | 0.00 | 0.00 | 0.00 | 57 | 1021.0 |
| 20260902101103 | 22 | 332 | 3.2 | 11.3 | 0.00 | 0.00 | 0.00 | 62 | 1021.2 |
| 20260902094103 | 22 | 259 | 3.2 | 8.0 | 0.00 | 0.00 | 0.00 | 62 | 1021.2 |
| 20260902091102 | 21 | 255 | 3.2 | 8.0 | 0.00 | 0.00 | 0.00 | 65 | 1021.4 |
| 20260902084102 | 20 | 343 | 3.2 | 8.0 | 0.00 | 0.00 | 0.00 | 68 | 1021.5 |
| 20260902081102 | 20 | 133 | 3.2 | 11.3 | 0.00 | 0.00 | 0.00 | 69 | 1021.6 |
| 20260902074103 | 19 | 139 | 6.4 | 11.3 | 0.00 | 0.00 | 0.00 | 73 | 1021.7 |